Airfield :
LOGIN :

Register | Disclaimer

   EN    FR    IT 

 










Legend :    VFR   Marginal VFR   IFR   Intensive IFR   Very Intensive IFR
Visi :
Ceiling :
>= 8 km
>= 3000ft
5 to 8 km
1000 to 3000 ft
1500m to 5 km
500 to 1000 ft
800 to 1500m
200 to 500 ft
< 800m
< 200 ft
Symbols :   Thunderstorms  Fog  Heavy snow  Heavy precipitations  Wind > 20 kt
SIGMETs :     Misc.  Thunderstorms  Icing  Turbulence  Mountain Waves  Volcanic Ashes







- Airport Elevation : 14 ft
- IATA code : BRE


EDDW - Bremen Neuenland

CURRENT METAR :
  • 280320Z 07009KT CAVOK 15/12 Q1002

EXPIRED METARs :
  • 280250Z 07007KT CAVOK 15/12 Q1003
  • 280220Z 06008KT CAVOK 15/13 Q1003
  • 280150Z 05008KT CAVOK 15/13 Q1003
  • 280120Z 05007KT 9999 -RA FEW046 BKN055 15/13 Q1004
  • 280050Z 07006KT 9999 -RA FEW038 BKN055 15/13 Q1004

TAF COR TAF EDDW
Valid from the 28 at 00:00 until the 29 at 00:00 UTC


272314Z 2800/2824 08010KT 9999 SCT030
TEMPO 2815/2821 16015G30KT 2500 TSRA BKN020CB
BECMG 2821/2824 24005KT 3000 BR BKN004
No reported NOTAMs for that airfield.



MET'MAP, your aeronautical weather chart ! - Copyright ORBIFLY December 2007 - Disclaimer

ORBIFLY MET'MAP TEAM :

Programming & Development : Alexandra Zaïnal
Concept & Development : Baudouin d'Aumeries
Co-Development & Prog : Marc-Olivier Méhu
Technical & hardware support : Manuel Goepfert

Contact : metmap@orbifly.com




SOURCES & CREDITS :

   NOAA